sensor_id;sensor_type;location;lat;lon;timestamp;temperature;humidity
29501;DHT22;16450;50.288;10.966;2023-03-01T00:02:05;-1.50;95.80
29501;DHT22;16450;50.288;10.966;2023-03-01T00:05:08;-1.60;95.80
29501;DHT22;16450;50.288;10.966;2023-03-01T00:08:09;-1.60;95.80
29501;DHT22;16450;50.288;10.966;2023-03-01T00:11:18;-1.60;95.80
29501;DHT22;16450;50.288;10.966;2023-03-01T00:14:21;-1.60;95.60
29501;DHT22;16450;50.288;10.966;2023-03-01T00:17:23;-1.70;95.70
29501;DHT22;16450;50.288;10.966;2023-03-01T00:20:25;-1.70;95.80
29501;DHT22;16450;50.288;10.966;2023-03-01T00:23:27;-1.70;95.80
29501;DHT22;16450;50.288;10.966;2023-03-01T00:26:29;-1.70;95.80
29501;DHT22;16450;50.288;10.966;2023-03-01T00:29:31;-1.70;95.80
29501;DHT22;16450;50.288;10.966;2023-03-01T00:32:33;-1.70;95.80
29501;DHT22;16450;50.288;10.966;2023-03-01T00:35:36;-1.70;95.90
29501;DHT22;16450;50.288;10.966;2023-03-01T00:38:46;-1.80;95.80
29501;DHT22;16450;50.288;10.966;2023-03-01T00:41:48;-1.80;95.40
29501;DHT22;16450;50.288;10.966;2023-03-01T00:44:51;-1.80;95.80
29501;DHT22;16450;50.288;10.966;2023-03-01T00:47:53;-1.80;95.80
29501;DHT22;16450;50.288;10.966;2023-03-01T00:50:55;-1.80;95.80
29501;DHT22;16450;50.288;10.966;2023-03-01T00:54:00;-1.80;95.90
29501;DHT22;16450;50.288;10.966;2023-03-01T00:57:02;-1.80;95.80
29501;DHT22;16450;50.288;10.966;2023-03-01T01:00:05;-1.80;95.90
29501;DHT22;16450;50.288;10.966;2023-03-01T01:03:07;-1.90;95.70
29501;DHT22;16450;50.288;10.966;2023-03-01T01:06:14;-1.80;95.80
29501;DHT22;16450;50.288;10.966;2023-03-01T01:09:17;-1.90;95.60
29501;DHT22;16450;50.288;10.966;2023-03-01T01:12:19;-1.90;95.70
29501;DHT22;16450;50.288;10.966;2023-03-01T01:15:21;-1.90;95.70
29501;DHT22;16450;50.288;10.966;2023-03-01T01:18:23;-2.00;95.70
29501;DHT22;16450;50.288;10.966;2023-03-01T01:21:26;-1.90;95.80
29501;DHT22;16450;50.288;10.966;2023-03-01T01:24:28;-2.00;95.70
29501;DHT22;16450;50.288;10.966;2023-03-01T01:27:30;-2.00;95.70
29501;DHT22;16450;50.288;10.966;2023-03-01T01:30:32;-2.10;95.60
29501;DHT22;16450;50.288;10.966;2023-03-01T01:33:34;-2.10;95.50
29501;DHT22;16450;50.288;10.966;2023-03-01T01:36:36;-2.10;95.50
29501;DHT22;16450;50.288;10.966;2023-03-01T01:39:38;-2.10;95.50
29501;DHT22;16450;50.288;10.966;2023-03-01T01:42:40;-2.20;95.30
29501;DHT22;16450;50.288;10.966;2023-03-01T01:45:42;-2.20;95.30
29501;DHT22;16450;50.288;10.966;2023-03-01T01:48:47;-2.20;95.30
29501;DHT22;16450;50.288;10.966;2023-03-01T01:51:54;-2.30;95.20
29501;DHT22;16450;50.288;10.966;2023-03-01T01:55:14;-2.30;95.20
29501;DHT22;16450;50.288;10.966;2023-03-01T01:58:19;-2.30;94.90
29501;DHT22;16450;50.288;10.966;2023-03-01T02:01:22;-2.30;95.20
29501;DHT22;16450;50.288;10.966;2023-03-01T02:04:24;-2.40;95.20
29501;DHT22;16450;50.288;10.966;2023-03-01T02:07:27;-2.40;95.10
29501;DHT22;16450;50.288;10.966;2023-03-01T02:10:31;-2.40;95.10
29501;DHT22;16450;50.288;10.966;2023-03-01T02:13:35;-2.50;95.00
29501;DHT22;16450;50.288;10.966;2023-03-01T02:16:37;-2.50;95.00
29501;DHT22;16450;50.288;10.966;2023-03-01T02:20:23;-2.60;95.00
29501;DHT22;16450;50.288;10.966;2023-03-01T02:23:16;-2.60;94.70
29501;DHT22;16450;50.288;10.966;2023-03-01T02:26:51;-2.70;94.90
29501;DHT22;16450;50.288;10.966;2023-03-01T02:29:54;-2.70;94.40
29501;DHT22;16450;50.288;10.966;2023-03-01T02:32:59;-2.80;94.80
29501;DHT22;16450;50.288;10.966;2023-03-01T02:36:15;-2.80;94.70
29501;DHT22;16450;50.288;10.966;2023-03-01T02:39:24;-2.90;94.50
29501;DHT22;16450;50.288;10.966;2023-03-01T02:42:31;-2.90;94.60
29501;DHT22;16450;50.288;10.966;2023-03-01T02:45:35;-3.00;94.50
29501;DHT22;16450;50.288;10.966;2023-03-01T02:48:48;-3.00;94.60
29501;DHT22;16450;50.288;10.966;2023-03-01T02:55:15;-3.10;94.30
29501;DHT22;16450;50.288;10.966;2023-03-01T02:58:19;-3.10;94.60
29501;DHT22;16450;50.288;10.966;2023-03-01T03:01:22;-3.20;94.50
29501;DHT22;16450;50.288;10.966;2023-03-01T03:04:23;-3.20;94.50
29501;DHT22;16450;50.288;10.966;2023-03-01T03:07:26;-3.30;94.60
29501;DHT22;16450;50.288;10.966;2023-03-01T03:10:35;-3.30;94.60
29501;DHT22;16450;50.288;10.966;2023-03-01T03:13:37;-3.30;94.50
29501;DHT22;16450;50.288;10.966;2023-03-01T03:16:49;-3.30;94.70
29501;DHT22;16450;50.288;10.966;2023-03-01T03:19:51;-3.40;94.70
29501;DHT22;16450;50.288;10.966;2023-03-01T03:22:55;-3.40;94.90
29501;DHT22;16450;50.288;10.966;2023-03-01T03:25:58;-3.40;94.70
29501;DHT22;16450;50.288;10.966;2023-03-01T03:29:00;-3.40;94.70
29501;DHT22;16450;50.288;10.966;2023-03-01T03:32:02;-3.50;94.60
29501;DHT22;16450;50.288;10.966;2023-03-01T03:35:05;-3.50;94.70
29501;DHT22;16450;50.288;10.966;2023-03-01T03:38:12;-3.50;95.10
29501;DHT22;16450;50.288;10.966;2023-03-01T03:41:17;-3.50;94.80
29501;DHT22;16450;50.288;10.966;2023-03-01T03:44:20;-3.60;94.90
29501;DHT22;16450;50.288;10.966;2023-03-01T03:47:22;-3.50;95.00
29501;DHT22;16450;50.288;10.966;2023-03-01T03:50:24;-3.60;94.90
29501;DHT22;16450;50.288;10.966;2023-03-01T03:53:28;-3.60;94.90
29501;DHT22;16450;50.288;10.966;2023-03-01T03:56:30;-3.60;94.80
29501;DHT22;16450;50.288;10.966;2023-03-01T03:59:33;-3.60;94.70
29501;DHT22;16450;50.288;10.966;2023-03-01T04:02:34;-3.60;94.70
29501;DHT22;16450;50.288;10.966;2023-03-01T04:05:38;-3.70;94.70
29501;DHT22;16450;50.288;10.966;2023-03-01T04:08:40;-3.70;94.70
29501;DHT22;16450;50.288;10.966;2023-03-01T04:11:42;-3.70;94.60
29501;DHT22;16450;50.288;10.966;2023-03-01T04:14:44;-3.80;94.60
29501;DHT22;16450;50.288;10.966;2023-03-01T04:17:48;-3.80;94.60
29501;DHT22;16450;50.288;10.966;2023-03-01T04:20:53;-3.80;94.60
29501;DHT22;16450;50.288;10.966;2023-03-01T04:23:57;-3.90;94.60
29501;DHT22;16450;50.288;10.966;2023-03-01T04:26:59;-3.90;94.60
29501;DHT22;16450;50.288;10.966;2023-03-01T04:30:02;-3.90;94.70
29501;DHT22;16450;50.288;10.966;2023-03-01T04:33:08;-3.90;94.70
29501;DHT22;16450;50.288;10.966;2023-03-01T04:36:12;-3.90;94.60
29501;DHT22;16450;50.288;10.966;2023-03-01T04:39:14;-4.00;94.70
29501;DHT22;16450;50.288;10.966;2023-03-01T04:42:16;-4.00;94.80
29501;DHT22;16450;50.288;10.966;2023-03-01T04:45:19;-4.00;95.00
29501;DHT22;16450;50.288;10.966;2023-03-01T04:48:21;-4.00;95.10
29501;DHT22;16450;50.288;10.966;2023-03-01T04:51:24;-4.00;95.10
29501;DHT22;16450;50.288;10.966;2023-03-01T04:54:26;-4.00;95.00
29501;DHT22;16450;50.288;10.966;2023-03-01T04:57:27;-4.00;95.00
29501;DHT22;16450;50.288;10.966;2023-03-01T05:00:29;-4.00;95.00
29501;DHT22;16450;50.288;10.966;2023-03-01T05:03:31;-4.10;95.30
29501;DHT22;16450;50.288;10.966;2023-03-01T05:06:33;-4.10;95.10
29501;DHT22;16450;50.288;10.966;2023-03-01T05:09:36;-4.10;95.20
29501;DHT22;16450;50.288;10.966;2023-03-01T05:12:38;-4.00;95.30
29501;DHT22;16450;50.288;10.966;2023-03-01T05:15:40;-4.10;95.30
29501;DHT22;16450;50.288;10.966;2023-03-01T05:18:42;-4.10;95.30
29501;DHT22;16450;50.288;10.966;2023-03-01T05:21:45;-4.10;95.20
29501;DHT22;16450;50.288;10.966;2023-03-01T05:25:06;-4.10;95.20
29501;DHT22;16450;50.288;10.966;2023-03-01T05:28:12;-4.10;95.10
29501;DHT22;16450;50.288;10.966;2023-03-01T05:31:14;-4.20;95.00
29501;DHT22;16450;50.288;10.966;2023-03-01T05:34:16;-4.20;95.00
29501;DHT22;16450;50.288;10.966;2023-03-01T05:37:18;-4.20;95.10
29501;DHT22;16450;50.288;10.966;2023-03-01T05:40:23;-4.20;95.20
29501;DHT22;16450;50.288;10.966;2023-03-01T05:43:25;-4.20;95.10
29501;DHT22;16450;50.288;10.966;2023-03-01T05:46:29;-4.20;95.20
29501;DHT22;16450;50.288;10.966;2023-03-01T05:49:34;-4.30;95.10
29501;DHT22;16450;50.288;10.966;2023-03-01T05:52:39;-4.30;95.40
29501;DHT22;16450;50.288;10.966;2023-03-01T05:55:42;-4.30;95.30
29501;DHT22;16450;50.288;10.966;2023-03-01T05:58:45;-4.30;95.30
29501;DHT22;16450;50.288;10.966;2023-03-01T06:01:49;-4.30;95.30
29501;DHT22;16450;50.288;10.966;2023-03-01T06:04:51;-4.30;95.20
29501;DHT22;16450;50.288;10.966;2023-03-01T06:07:54;-4.40;95.10
29501;DHT22;16450;50.288;10.966;2023-03-01T06:10:56;-4.40;95.10
29501;DHT22;16450;50.288;10.966;2023-03-01T06:13:58;-4.40;95.20
29501;DHT22;16450;50.288;10.966;2023-03-01T06:17:00;-4.40;95.30
29501;DHT22;16450;50.288;10.966;2023-03-01T06:20:09;-4.40;95.40
29501;DHT22;16450;50.288;10.966;2023-03-01T06:23:11;-4.40;95.80
29501;DHT22;16450;50.288;10.966;2023-03-01T06:26:13;-4.40;95.70
29501;DHT22;16450;50.288;10.966;2023-03-01T06:29:15;-4.40;95.80
29501;DHT22;16450;50.288;10.966;2023-03-01T06:32:17;-4.40;96.00
29501;DHT22;16450;50.288;10.966;2023-03-01T06:35:20;-4.40;96.20
29501;DHT22;16450;50.288;10.966;2023-03-01T06:38:23;-4.30;96.40
29501;DHT22;16450;50.288;10.966;2023-03-01T06:41:25;-4.30;96.50
29501;DHT22;16450;50.288;10.966;2023-03-01T06:44:27;-4.30;96.60
29501;DHT22;16450;50.288;10.966;2023-03-01T06:47:30;-4.20;96.90
29501;DHT22;16450;50.288;10.966;2023-03-01T06:50:32;-4.20;96.90
29501;DHT22;16450;50.288;10.966;2023-03-01T06:53:34;-4.10;97.00
29501;DHT22;16450;50.288;10.966;2023-03-01T06:56:36;-4.00;97.10
29501;DHT22;16450;50.288;10.966;2023-03-01T06:59:38;-4.00;97.20
29501;DHT22;16450;50.288;10.966;2023-03-01T07:02:40;-3.90;97.30
29501;DHT22;16450;50.288;10.966;2023-03-01T07:05:42;-3.90;97.30
29501;DHT22;16450;50.288;10.966;2023-03-01T07:08:44;-3.80;97.40
29501;DHT22;16450;50.288;10.966;2023-03-01T07:11:46;-3.70;97.50
29501;DHT22;16450;50.288;10.966;2023-03-01T07:14:48;-3.70;97.60
29501;DHT22;16450;50.288;10.966;2023-03-01T07:17:50;-3.60;97.80
29501;DHT22;16450;50.288;10.966;2023-03-01T07:20:52;-3.50;97.90
29501;DHT22;16450;50.288;10.966;2023-03-01T07:23:55;-3.50;97.90
29501;DHT22;16450;50.288;10.966;2023-03-01T07:26:58;-3.30;98.10
29501;DHT22;16450;50.288;10.966;2023-03-01T07:30:00;-3.30;98.20
29501;DHT22;16450;50.288;10.966;2023-03-01T07:33:01;-3.20;98.20
29501;DHT22;16450;50.288;10.966;2023-03-01T07:36:04;-3.10;98.30
29501;DHT22;16450;50.288;10.966;2023-03-01T07:39:07;-3.00;98.40
29501;DHT22;16450;50.288;10.966;2023-03-01T07:42:08;-2.90;98.40
29501;DHT22;16450;50.288;10.966;2023-03-01T07:45:10;-2.80;98.50
29501;DHT22;16450;50.288;10.966;2023-03-01T07:48:13;-2.70;98.50
29501;DHT22;16450;50.288;10.966;2023-03-01T07:51:14;-2.60;98.60
29501;DHT22;16450;50.288;10.966;2023-03-01T07:54:17;-2.50;98.80
29501;DHT22;16450;50.288;10.966;2023-03-01T07:57:19;-2.40;98.80
29501;DHT22;16450;50.288;10.966;2023-03-01T08:00:21;-2.30;99.00
29501;DHT22;16450;50.288;10.966;2023-03-01T08:03:23;-2.20;98.90
29501;DHT22;16450;50.288;10.966;2023-03-01T08:06:25;-2.00;98.90
29501;DHT22;16450;50.288;10.966;2023-03-01T08:09:27;-2.00;98.80
29501;DHT22;16450;50.288;10.966;2023-03-01T08:12:29;-1.80;98.90
29501;DHT22;16450;50.288;10.966;2023-03-01T08:15:31;-1.80;98.90
29501;DHT22;16450;50.288;10.966;2023-03-01T08:18:33;-1.60;98.90
29501;DHT22;16450;50.288;10.966;2023-03-01T08:21:35;-1.50;99.00
29501;DHT22;16450;50.288;10.966;2023-03-01T08:24:38;-1.40;99.20
29501;DHT22;16450;50.288;10.966;2023-03-01T08:27:40;-1.30;99.00
29501;DHT22;16450;50.288;10.966;2023-03-01T08:30:41;-1.20;99.00
29501;DHT22;16450;50.288;10.966;2023-03-01T08:33:43;-1.10;99.10
29501;DHT22;16450;50.288;10.966;2023-03-01T08:36:46;-1.00;99.10
29501;DHT22;16450;50.288;10.966;2023-03-01T08:39:48;-0.90;99.00
29501;DHT22;16450;50.288;10.966;2023-03-01T08:42:50;-0.80;98.90
29501;DHT22;16450;50.288;10.966;2023-03-01T08:45:52;-0.70;98.90
29501;DHT22;16450;50.288;10.966;2023-03-01T08:48:54;-0.50;99.00
29501;DHT22;16450;50.288;10.966;2023-03-01T08:51:56;-0.50;99.20
29501;DHT22;16450;50.288;10.966;2023-03-01T08:54:58;-0.40;99.00
29501;DHT22;16450;50.288;10.966;2023-03-01T08:58:00;-0.30;99.00
29501;DHT22;16450;50.288;10.966;2023-03-01T09:01:07;-0.10;99.10
29501;DHT22;16450;50.288;10.966;2023-03-01T09:04:14;0.00;98.70
29501;DHT22;16450;50.288;10.966;2023-03-01T09:07:16;0.20;99.50
29501;DHT22;16450;50.288;10.966;2023-03-01T09:10:18;0.30;99.40
29501;DHT22;16450;50.288;10.966;2023-03-01T09:13:20;0.60;99.60
29501;DHT22;16450;50.288;10.966;2023-03-01T09:16:22;0.80;99.90
29501;DHT22;16450;50.288;10.966;2023-03-01T09:19:24;1.10;99.90
29501;DHT22;16450;50.288;10.966;2023-03-01T09:22:28;1.50;99.90
29501;DHT22;16450;50.288;10.966;2023-03-01T09:25:29;1.90;99.90
29501;DHT22;16450;50.288;10.966;2023-03-01T09:28:31;2.30;99.90
29501;DHT22;16450;50.288;10.966;2023-03-01T09:31:33;2.80;99.90
29501;DHT22;16450;50.288;10.966;2023-03-01T09:34:35;3.10;99.90
29501;DHT22;16450;50.288;10.966;2023-03-01T09:38:00;3.40;99.90
29501;DHT22;16450;50.288;10.966;2023-03-01T09:41:02;3.80;99.90
29501;DHT22;16450;50.288;10.966;2023-03-01T09:47:18;4.40;97.80
29501;DHT22;16450;50.288;10.966;2023-03-01T09:50:21;4.60;99.40
29501;DHT22;16450;50.288;10.966;2023-03-01T09:53:29;4.80;99.10
29501;DHT22;16450;50.288;10.966;2023-03-01T09:57:05;5.00;98.10
29501;DHT22;16450;50.288;10.966;2023-03-01T10:03:39;5.30;96.40
29501;DHT22;16450;50.288;10.966;2023-03-01T10:10:28;5.50;95.90
29501;DHT22;16450;50.288;10.966;2023-03-01T10:17:04;5.60;95.50
29501;DHT22;16450;50.288;10.966;2023-03-01T10:20:23;5.60;96.00
29501;DHT22;16450;50.288;10.966;2023-03-01T10:23:26;5.70;94.90
29501;DHT22;16450;50.288;10.966;2023-03-01T10:26:44;5.70;97.00
29501;DHT22;16450;50.288;10.966;2023-03-01T10:30:17;5.70;95.00
29501;DHT22;16450;50.288;10.966;2023-03-01T10:33:27;5.70;94.70
29501;DHT22;16450;50.288;10.966;2023-03-01T10:36:32;5.70;95.90
29501;DHT22;16450;50.288;10.966;2023-03-01T10:39:35;5.70;96.40
29501;DHT22;16450;50.288;10.966;2023-03-01T10:42:39;5.70;97.10
29501;DHT22;16450;50.288;10.966;2023-03-01T10:45:47;5.80;96.10
29501;DHT22;16450;50.288;10.966;2023-03-01T10:49:24;5.70;96.80
29501;DHT22;16450;50.288;10.966;2023-03-01T10:55:38;5.80;96.50
29501;DHT22;16450;50.288;10.966;2023-03-01T11:05:26;5.70;96.40
29501;DHT22;16450;50.288;10.966;2023-03-01T11:08:44;5.80;97.10
29501;DHT22;16450;50.288;10.966;2023-03-01T11:11:52;5.80;95.90
29501;DHT22;16450;50.288;10.966;2023-03-01T11:14:54;5.80;95.60
29501;DHT22;16450;50.288;10.966;2023-03-01T11:17:57;5.80;97.10
29501;DHT22;16450;50.288;10.966;2023-03-01T11:21:15;5.80;97.00
29501;DHT22;16450;50.288;10.966;2023-03-01T11:24:18;5.80;96.60
29501;DHT22;16450;50.288;10.966;2023-03-01T11:27:36;5.80;96.90
29501;DHT22;16450;50.288;10.966;2023-03-01T11:31:00;5.80;95.10
29501;DHT22;16450;50.288;10.966;2023-03-01T11:34:18;5.80;95.30
29501;DHT22;16450;50.288;10.966;2023-03-01T11:40:44;5.80;95.10
29501;DHT22;16450;50.288;10.966;2023-03-01T11:43:57;5.80;96.10
29501;DHT22;16450;50.288;10.966;2023-03-01T11:50:41;5.80;96.50
29501;DHT22;16450;50.288;10.966;2023-03-01T11:54:13;5.90;96.10
29501;DHT22;16450;50.288;10.966;2023-03-01T12:04:26;6.00;95.30
29501;DHT22;16450;50.288;10.966;2023-03-01T12:18:24;6.40;94.90
29501;DHT22;16450;50.288;10.966;2023-03-01T12:25:20;6.50;96.30
29501;DHT22;16450;50.288;10.966;2023-03-01T12:28:51;6.60;95.20
29501;DHT22;16450;50.288;10.966;2023-03-01T12:39:14;6.70;95.20
29501;DHT22;16450;50.288;10.966;2023-03-01T12:46:33;6.80;95.40
29501;DHT22;16450;50.288;10.966;2023-03-01T12:49:45;6.80;95.80
29501;DHT22;16450;50.288;10.966;2023-03-01T12:52:55;6.90;96.60
29501;DHT22;16450;50.288;10.966;2023-03-01T12:56:19;6.90;97.40
29501;DHT22;16450;50.288;10.966;2023-03-01T13:02:48;7.00;98.00
29501;DHT22;16450;50.288;10.966;2023-03-01T13:05:56;7.00;96.50
29501;DHT22;16450;50.288;10.966;2023-03-01T13:09:19;7.10;97.90
29501;DHT22;16450;50.288;10.966;2023-03-01T13:12:52;7.10;96.00
29501;DHT22;16450;50.288;10.966;2023-03-01T13:15:56;7.20;95.10
29501;DHT22;16450;50.288;10.966;2023-03-01T13:19:15;7.20;98.00
29501;DHT22;16450;50.288;10.966;2023-03-01T13:22:32;7.20;95.30
29501;DHT22;16450;50.288;10.966;2023-03-01T13:29:02;7.30;95.70
29501;DHT22;16450;50.288;10.966;2023-03-01T13:32:24;7.30;97.90
29501;DHT22;16450;50.288;10.966;2023-03-01T13:35:44;7.30;95.10
29501;DHT22;16450;50.288;10.966;2023-03-01T13:41:57;7.30;95.50
29501;DHT22;16450;50.288;10.966;2023-03-01T13:45:00;7.30;97.40
29501;DHT22;16450;50.288;10.966;2023-03-01T13:48:15;7.30;97.30
29501;DHT22;16450;50.288;10.966;2023-03-01T13:51:23;7.30;96.00
29501;DHT22;16450;50.288;10.966;2023-03-01T13:54:31;7.30;96.20
29501;DHT22;16450;50.288;10.966;2023-03-01T13:57:36;7.20;95.90
29501;DHT22;16450;50.288;10.966;2023-03-01T14:00:39;7.20;96.60
29501;DHT22;16450;50.288;10.966;2023-03-01T14:03:42;7.30;97.00
29501;DHT22;16450;50.288;10.966;2023-03-01T14:06:44;7.20;97.20
29501;DHT22;16450;50.288;10.966;2023-03-01T14:09:49;7.20;97.40
29501;DHT22;16450;50.288;10.966;2023-03-01T14:19:56;7.10;94.50
29501;DHT22;16450;50.288;10.966;2023-03-01T14:23:02;7.00;95.20
29501;DHT22;16450;50.288;10.966;2023-03-01T14:26:04;6.90;95.80
29501;DHT22;16450;50.288;10.966;2023-03-01T14:29:06;6.80;96.60
29501;DHT22;16450;50.288;10.966;2023-03-01T14:32:17;6.80;96.50
29501;DHT22;16450;50.288;10.966;2023-03-01T14:35:29;6.70;95.10
29501;DHT22;16450;50.288;10.966;2023-03-01T14:38:44;6.70;95.60
29501;DHT22;16450;50.288;10.966;2023-03-01T14:41:46;6.60;95.70
29501;DHT22;16450;50.288;10.966;2023-03-01T14:44:53;6.60;96.70
29501;DHT22;16450;50.288;10.966;2023-03-01T14:47:59;6.60;95.80
29501;DHT22;16450;50.288;10.966;2023-03-01T14:51:04;6.60;96.30
29501;DHT22;16450;50.288;10.966;2023-03-01T14:54:39;6.50;95.70
29501;DHT22;16450;50.288;10.966;2023-03-01T14:57:44;6.50;94.30
29501;DHT22;16450;50.288;10.966;2023-03-01T15:00:58;6.40;96.50
29501;DHT22;16450;50.288;10.966;2023-03-01T15:04:01;6.40;95.30
29501;DHT22;16450;50.288;10.966;2023-03-01T15:07:04;6.40;96.30
29501;DHT22;16450;50.288;10.966;2023-03-01T15:10:17;6.30;96.60
29501;DHT22;16450;50.288;10.966;2023-03-01T15:13:23;6.30;95.00
29501;DHT22;16450;50.288;10.966;2023-03-01T15:16:29;6.20;96.30
29501;DHT22;16450;50.288;10.966;2023-03-01T15:19:32;6.20;95.90
29501;DHT22;16450;50.288;10.966;2023-03-01T15:22:35;6.20;96.50
29501;DHT22;16450;50.288;10.966;2023-03-01T15:25:37;6.10;96.30
29501;DHT22;16450;50.288;10.966;2023-03-01T15:28:43;6.10;96.40
29501;DHT22;16450;50.288;10.966;2023-03-01T15:31:58;6.10;95.80
29501;DHT22;16450;50.288;10.966;2023-03-01T15:35:32;6.10;95.60
29501;DHT22;16450;50.288;10.966;2023-03-01T15:38:30;6.00;96.30
29501;DHT22;16450;50.288;10.966;2023-03-01T15:41:48;6.00;95.00
29501;DHT22;16450;50.288;10.966;2023-03-01T15:44:50;5.90;94.20
29501;DHT22;16450;50.288;10.966;2023-03-01T15:48:17;5.90;96.20
29501;DHT22;16450;50.288;10.966;2023-03-01T15:51:36;5.90;94.60
29501;DHT22;16450;50.288;10.966;2023-03-01T15:54:39;5.80;94.10
29501;DHT22;16450;50.288;10.966;2023-03-01T15:57:41;5.80;96.00
29501;DHT22;16450;50.288;10.966;2023-03-01T16:00:44;5.70;96.20
29501;DHT22;16450;50.288;10.966;2023-03-01T16:04:00;5.70;95.70
29501;DHT22;16450;50.288;10.966;2023-03-01T16:07:02;5.60;96.10
29501;DHT22;16450;50.288;10.966;2023-03-01T16:10:04;5.60;96.00
29501;DHT22;16450;50.288;10.966;2023-03-01T16:13:06;5.50;95.90
29501;DHT22;16450;50.288;10.966;2023-03-01T16:16:10;5.50;95.80
29501;DHT22;16450;50.288;10.966;2023-03-01T16:19:17;5.50;95.80
29501;DHT22;16450;50.288;10.966;2023-03-01T16:22:19;5.50;96.00
29501;DHT22;16450;50.288;10.966;2023-03-01T16:25:26;5.50;95.80
29501;DHT22;16450;50.288;10.966;2023-03-01T16:28:28;5.40;95.40
29501;DHT22;16450;50.288;10.966;2023-03-01T16:31:31;5.30;95.00
29501;DHT22;16450;50.288;10.966;2023-03-01T16:34:34;5.20;94.90
29501;DHT22;16450;50.288;10.966;2023-03-01T16:37:36;5.10;94.60
29501;DHT22;16450;50.288;10.966;2023-03-01T16:40:38;5.00;94.60
29501;DHT22;16450;50.288;10.966;2023-03-01T16:43:40;4.90;94.30
29501;DHT22;16450;50.288;10.966;2023-03-01T16:46:42;4.80;94.40
29501;DHT22;16450;50.288;10.966;2023-03-01T16:49:45;4.70;94.20
29501;DHT22;16450;50.288;10.966;2023-03-01T16:52:46;4.60;94.10
29501;DHT22;16450;50.288;10.966;2023-03-01T16:55:56;4.60;94.10
29501;DHT22;16450;50.288;10.966;2023-03-01T16:58:58;4.50;92.80
29501;DHT22;16450;50.288;10.966;2023-03-01T17:02:04;4.40;93.90
29501;DHT22;16450;50.288;10.966;2023-03-01T17:05:09;4.30;93.60
29501;DHT22;16450;50.288;10.966;2023-03-01T17:08:12;4.20;93.50
29501;DHT22;16450;50.288;10.966;2023-03-01T17:11:16;4.10;93.80
29501;DHT22;16450;50.288;10.966;2023-03-01T17:14:18;4.10;93.30
29501;DHT22;16450;50.288;10.966;2023-03-01T17:17:20;4.00;93.80
29501;DHT22;16450;50.288;10.966;2023-03-01T17:20:22;3.90;93.80
29501;DHT22;16450;50.288;10.966;2023-03-01T17:23:24;3.80;93.80
29501;DHT22;16450;50.288;10.966;2023-03-01T17:26:27;3.80;94.00
29501;DHT22;16450;50.288;10.966;2023-03-01T17:29:30;3.70;93.90
29501;DHT22;16450;50.288;10.966;2023-03-01T17:32:31;3.60;94.10
29501;DHT22;16450;50.288;10.966;2023-03-01T17:35:33;3.60;94.30
29501;DHT22;16450;50.288;10.966;2023-03-01T17:38:38;3.50;94.30
29501;DHT22;16450;50.288;10.966;2023-03-01T17:41:40;3.50;94.30
29501;DHT22;16450;50.288;10.966;2023-03-01T17:44:42;3.40;94.30
29501;DHT22;16450;50.288;10.966;2023-03-01T17:47:44;3.30;94.00
29501;DHT22;16450;50.288;10.966;2023-03-01T17:50:46;3.30;94.00
29501;DHT22;16450;50.288;10.966;2023-03-01T17:53:48;3.20;93.90
29501;DHT22;16450;50.288;10.966;2023-03-01T17:56:50;3.20;93.80
29501;DHT22;16450;50.288;10.966;2023-03-01T17:59:52;3.10;93.70
29501;DHT22;16450;50.288;10.966;2023-03-01T18:02:54;3.10;93.80
29501;DHT22;16450;50.288;10.966;2023-03-01T18:05:56;3.10;93.80
29501;DHT22;16450;50.288;10.966;2023-03-01T18:08:59;3.00;93.90
29501;DHT22;16450;50.288;10.966;2023-03-01T18:12:01;2.90;94.00
29501;DHT22;16450;50.288;10.966;2023-03-01T18:15:05;2.90;94.10
29501;DHT22;16450;50.288;10.966;2023-03-01T18:18:07;2.80;93.90
29501;DHT22;16450;50.288;10.966;2023-03-01T18:21:08;2.80;94.20
29501;DHT22;16450;50.288;10.966;2023-03-01T18:24:10;2.80;94.20
29501;DHT22;16450;50.288;10.966;2023-03-01T18:27:12;2.80;94.40
29501;DHT22;16450;50.288;10.966;2023-03-01T18:30:14;2.70;94.30
29501;DHT22;16450;50.288;10.966;2023-03-01T18:33:17;2.50;94.00
29501;DHT22;16450;50.288;10.966;2023-03-01T18:36:22;2.60;94.20
29501;DHT22;16450;50.288;10.966;2023-03-01T18:39:24;2.60;93.90
29501;DHT22;16450;50.288;10.966;2023-03-01T18:42:25;2.60;94.30
29501;DHT22;16450;50.288;10.966;2023-03-01T18:45:27;2.60;94.60
29501;DHT22;16450;50.288;10.966;2023-03-01T18:48:31;2.50;94.50
29501;DHT22;16450;50.288;10.966;2023-03-01T18:51:34;2.50;94.80
29501;DHT22;16450;50.288;10.966;2023-03-01T18:54:36;2.40;94.80
29501;DHT22;16450;50.288;10.966;2023-03-01T18:57:38;2.40;94.70
29501;DHT22;16450;50.288;10.966;2023-03-01T19:00:40;2.40;94.60
29501;DHT22;16450;50.288;10.966;2023-03-01T19:03:42;2.40;94.70
29501;DHT22;16450;50.288;10.966;2023-03-01T19:06:44;2.40;94.80
29501;DHT22;16450;50.288;10.966;2023-03-01T19:09:46;2.30;94.70
29501;DHT22;16450;50.288;10.966;2023-03-01T19:12:48;2.30;94.60
29501;DHT22;16450;50.288;10.966;2023-03-01T19:15:50;2.30;94.80
29501;DHT22;16450;50.288;10.966;2023-03-01T19:18:57;2.20;94.80
29501;DHT22;16450;50.288;10.966;2023-03-01T19:22:00;2.20;94.40
29501;DHT22;16450;50.288;10.966;2023-03-01T19:25:09;2.20;94.70
29501;DHT22;16450;50.288;10.966;2023-03-01T19:28:10;2.10;94.60
29501;DHT22;16450;50.288;10.966;2023-03-01T19:31:18;2.10;94.60
29501;DHT22;16450;50.288;10.966;2023-03-01T19:34:20;2.10;94.30
29501;DHT22;16450;50.288;10.966;2023-03-01T19:37:24;2.00;94.40
29501;DHT22;16450;50.288;10.966;2023-03-01T19:40:26;2.00;94.40
29501;DHT22;16450;50.288;10.966;2023-03-01T19:43:28;2.00;94.40
29501;DHT22;16450;50.288;10.966;2023-03-01T19:46:31;1.90;94.40
29501;DHT22;16450;50.288;10.966;2023-03-01T19:49:34;1.90;94.30
29501;DHT22;16450;50.288;10.966;2023-03-01T19:52:37;1.90;94.50
29501;DHT22;16450;50.288;10.966;2023-03-01T19:55:40;1.80;94.50
29501;DHT22;16450;50.288;10.966;2023-03-01T19:58:43;1.70;94.40
29501;DHT22;16450;50.288;10.966;2023-03-01T20:01:45;1.70;94.40
29501;DHT22;16450;50.288;10.966;2023-03-01T20:04:47;1.70;94.50
29501;DHT22;16450;50.288;10.966;2023-03-01T20:07:49;1.70;94.50
29501;DHT22;16450;50.288;10.966;2023-03-01T20:10:51;1.70;94.50
29501;DHT22;16450;50.288;10.966;2023-03-01T20:13:53;1.70;94.60
29501;DHT22;16450;50.288;10.966;2023-03-01T20:16:55;1.60;94.60
29501;DHT22;16450;50.288;10.966;2023-03-01T20:19:57;1.60;94.60
29501;DHT22;16450;50.288;10.966;2023-03-01T20:22:58;1.50;94.50
29501;DHT22;16450;50.288;10.966;2023-03-01T20:26:06;1.50;94.50
29501;DHT22;16450;50.288;10.966;2023-03-01T20:29:08;1.50;94.00
29501;DHT22;16450;50.288;10.966;2023-03-01T20:32:11;1.40;94.60
29501;DHT22;16450;50.288;10.966;2023-03-01T20:35:13;1.40;94.70
29501;DHT22;16450;50.288;10.966;2023-03-01T20:38:14;1.40;94.70
29501;DHT22;16450;50.288;10.966;2023-03-01T20:41:16;1.40;94.70
29501;DHT22;16450;50.288;10.966;2023-03-01T20:44:18;1.30;94.60
29501;DHT22;16450;50.288;10.966;2023-03-01T20:47:20;1.30;94.90